Time;durP1;ratioP1;P1;durP2;ratioP2;P2;SDS_P1;SDS_P2;PMS_P1;PMS_P2;Temp;Humidity;BMP_temperature;BMP_pressure;BME280_temperature;BME280_humidity;BME280_pressure;Samples;Min_cycle;Max_cycle;Signal;HPM_P1;HPM_P2
2023/04/21 00:01:13;;;;;;;34.00;5.90;;;;;;;10.87;100.00;100034.64;106887;1285;58289;-76
2023/04/21 00:03:40;;;;;;;34.50;5.90;;;;;;;10.98;100.00;100028.98;106844;1285;60005;-75
2023/04/21 00:06:06;;;;;;;34.20;6.10;;;;;;;10.96;100.00;100031.26;106579;1285;73496;-75
2023/04/21 00:08:33;;;;;;;31.00;5.10;;;;;;;10.98;100.00;100026.09;106849;1284;58701;-75
2023/04/21 00:10:58;;;;;;;34.00;6.10;;;;;;;10.98;100.00;100025.27;106623;1284;58704;-75
2023/04/21 00:13:24;;;;;;;32.00;5.50;;;;;;;10.99;100.00;100022.68;106860;1284;58463;-76
2023/04/21 00:15:50;;;;;;;29.00;5.50;;;;;;;11.01;100.00;100026.06;106869;1284;58518;-75
2023/04/21 00:18:16;;;;;;;22.40;4.90;;;;;;;10.96;100.00;100023.72;106867;1284;58263;-75
2023/04/21 00:20:43;;;;;;;27.20;5.50;;;;;;;10.95;100.00;100023.23;106594;1284;58445;-75
2023/04/21 00:23:10;;;;;;;32.70;5.90;;;;;;;10.93;100.00;100021.40;106857;1284;58418;-75
2023/04/21 00:25:35;;;;;;;42.90;6.10;;;;;;;10.98;100.00;100016.97;106835;1284;58412;-76
2023/04/21 00:28:01;;;;;;;22.10;5.80;;;;;;;11.07;100.00;100016.27;106926;1284;58114;-76
2023/04/21 00:30:27;;;;;;;27.30;5.40;;;;;;;11.09;100.00;100014.21;106920;1285;58635;-75
2023/04/21 00:32:52;;;;;;;36.40;5.90;;;;;;;11.10;100.00;100013.57;106707;1283;73413;-75
2023/04/21 00:35:18;;;;;;;29.80;5.10;;;;;;;11.05;100.00;100010.56;106863;1285;58299;-75
2023/04/21 00:37:43;;;;;;;42.70;5.20;;;;;;;11.00;100.00;100010.20;106930;1285;58403;-76
2023/04/21 00:40:10;;;;;;;28.60;5.10;;;;;;;10.98;100.00;100006.62;106917;1284;58315;-76
2023/04/21 00:42:35;;;;;;;30.40;5.40;;;;;;;11.00;100.00;100008.59;106886;1285;58244;-75
2023/04/21 00:45:02;;;;;;;34.70;5.80;;;;;;;11.02;100.00;100009.50;107035;1283;58699;-75
2023/04/21 00:47:27;;;;;;;23.60;5.10;;;;;;;11.01;100.00;100009.08;106899;1285;60323;-75
2023/04/21 00:49:53;;;;;;;24.90;4.60;;;;;;;10.94;100.00;100010.52;106912;1283;58366;-75
2023/04/21 00:52:19;;;;;;;28.70;5.70;;;;;;;10.84;100.00;100007.05;106660;1285;58342;-75
2023/04/21 00:54:45;;;;;;;26.60;4.70;;;;;;;10.79;100.00;100010.63;106887;1284;58216;-75
2023/04/21 00:57:11;;;;;;;31.40;5.40;;;;;;;10.78;100.00;100012.03;106892;1285;58304;-75
2023/04/21 00:59:36;;;;;;;32.70;5.20;;;;;;;10.74;100.00;100006.98;106672;1283;58461;-76
2023/04/21 01:02:02;;;;;;;27.50;5.00;;;;;;;10.68;100.00;100010.61;106916;1283;74324;-75
2023/04/21 01:04:34;;;;;;;31.30;5.50;;;;;;;10.66;100.00;100008.09;106901;1285;58245;-75
2023/04/21 01:07:00;;;;;;;21.90;4.60;;;;;;;10.65;100.00;100007.29;106905;1283;62237;-75
2023/04/21 01:09:26;;;;;;;30.30;4.80;;;;;;;10.67;100.00;100001.94;106896;1285;58448;-76
2023/04/21 01:12:09;;;;;;;23.70;5.00;;;;;;;10.73;100.00;99998.47;106905;1285;58345;-75
2023/04/21 01:14:39;;;;;;;41.20;6.00;;;;;;;10.66;100.00;99998.66;106924;1283;74174;-76
2023/04/21 01:17:06;;;;;;;28.20;5.50;;;;;;;10.76;100.00;99994.15;106892;1284;72481;-76
2023/04/21 01:19:38;;;;;;;21.30;5.30;;;;;;;10.74;100.00;99995.89;106869;1284;61259;-75
2023/04/21 01:22:05;;;;;;;25.20;4.70;;;;;;;10.76;100.00;99990.00;106913;1284;59938;-76
2023/04/21 01:24:42;;;;;;;31.60;5.30;;;;;;;10.75;100.00;99990.80;106908;1284;73815;-75
2023/04/21 01:27:12;;;;;;;34.80;5.20;;;;;;;10.74;100.00;99990.39;106907;1284;74196;-76
2023/04/21 01:29:40;;;;;;;27.80;4.90;;;;;;;10.73;100.00;99988.67;106877;1285;73321;-76
2023/04/21 01:32:08;;;;;;;26.50;4.70;;;;;;;10.74;100.00;99987.68;106906;1284;61771;-75
2023/04/21 01:34:34;;;;;;;25.40;4.60;;;;;;;10.76;100.00;99987.69;106596;1284;60066;-75
2023/04/21 01:37:00;;;;;;;19.20;5.00;;;;;;;10.75;100.00;99988.48;106923;1284;58273;-75
2023/04/21 01:39:25;;;;;;;25.40;5.00;;;;;;;10.73;100.00;99986.89;106863;1284;58404;-76
2023/04/21 01:41:51;;;;;;;27.60;5.50;;;;;;;10.74;100.00;99991.30;106947;1285;58210;-75
2023/04/21 01:44:17;;;;;;;19.50;4.90;;;;;;;10.70;100.00;99990.29;106883;1285;58314;-76
2023/04/21 01:46:42;;;;;;;34.50;4.70;;;;;;;10.67;100.00;99987.01;107017;1284;58600;-76
2023/04/21 01:49:08;;;;;;;27.10;4.80;;;;;;;10.59;100.00;99992.92;106930;1284;58874;-77
2023/04/21 01:51:33;;;;;;;30.70;5.60;;;;;;;10.60;100.00;99993.66;106928;1284;58209;-77
2023/04/21 01:53:59;;;;;;;31.30;5.40;;;;;;;10.65;100.00;99993.43;106865;1285;58540;-76
2023/04/21 01:56:24;;;;;;;28.50;4.80;;;;;;;10.56;100.00;99993.09;106662;1284;58534;-76
2023/04/21 01:58:52;;;;;;;26.70;5.40;;;;;;;10.46;100.00;99988.48;107031;1285;58499;-77
2023/04/21 02:01:17;;;;;;;24.80;5.70;;;;;;;10.46;100.00;99990.05;106868;1285;73465;-76
2023/04/21 02:03:43;;;;;;;24.70;5.20;;;;;;;10.50;100.00;99986.48;106941;1285;58188;-76
2023/04/21 02:06:08;;;;;;;27.10;4.70;;;;;;;10.49;100.00;99988.42;106924;1283;58265;-76
2023/04/21 02:08:34;;;;;;;24.40;5.40;;;;;;;10.48;100.00;99985.61;106933;1283;58558;-76
2023/04/21 02:11:00;;;;;;;22.40;5.20;;;;;;;10.41;100.00;99986.77;106680;1283;58437;-76
2023/04/21 02:13:26;;;;;;;31.40;5.50;;;;;;;10.43;100.00;99981.75;106907;1284;61778;-77
2023/04/21 02:15:51;;;;;;;37.80;6.00;;;;;;;10.44;100.00;99979.37;106709;1284;58454;-77
2023/04/21 02:18:17;;;;;;;27.50;5.60;;;;;;;10.45;100.00;99978.20;106931;1284;58262;-77
2023/04/21 02:20:42;;;;;;;24.20;5.20;;;;;;;10.42;100.00;99977.14;106925;1284;58622;-77
2023/04/21 02:23:08;;;;;;;35.70;6.10;;;;;;;10.45;100.00;99977.17;106944;1284;58525;-77
2023/04/21 02:25:33;;;;;;;35.10;5.70;;;;;;;10.51;100.00;99973.22;106922;1284;61605;-77
2023/04/21 02:27:59;;;;;;;26.00;5.20;;;;;;;10.54;100.00;99968.30;106923;1285;58362;-77
2023/04/21 02:30:25;;;;;;;31.10;5.50;;;;;;;10.51;100.00;99971.43;106694;1284;58947;-77
2023/04/21 02:32:50;;;;;;;26.00;6.00;;;;;;;10.43;100.00;99972.82;107024;1285;58401;-77
2023/04/21 02:35:16;;;;;;;28.30;5.50;;;;;;;10.36;100.00;99971.60;106900;1285;58259;-78
2023/04/21 02:37:41;;;;;;;25.30;5.10;;;;;;;10.38;100.00;99973.42;106972;1284;58255;-77
2023/04/21 02:40:08;;;;;;;21.50;5.30;;;;;;;10.39;100.00;99976.76;106912;1285;58217;-78
2023/04/21 02:42:33;;;;;;;26.30;5.70;;;;;;;10.36;100.00;99976.70;106669;1285;58359;-78
2023/04/21 02:44:59;;;;;;;33.40;5.60;;;;;;;10.46;100.00;99978.14;106892;1285;58224;-77
2023/04/21 02:47:24;;;;;;;33.30;6.10;;;;;;;10.50;100.00;99978.62;106949;1285;58262;-78
2023/04/21 02:49:50;;;;;;;31.50;6.90;;;;;;;10.47;100.00;99978.94;106902;1286;58496;-77
2023/04/21 02:52:15;;;;;;;34.80;8.30;;;;;;;10.44;100.00;99979.11;106895;1286;58676;-77
2023/04/21 02:54:41;;;;;;;33.30;8.70;;;;;;;10.41;100.00;99978.04;106789;1284;58374;-77
2023/04/21 02:57:06;;;;;;;46.80;9.40;;;;;;;10.38;100.00;99977.40;106929;1285;58283;-78
2023/04/21 02:59:32;;;;;;;43.70;10.10;;;;;;;10.36;100.00;99974.08;106968;1285;58203;-77
2023/04/21 03:01:58;;;;;;;38.50;9.90;;;;;;;10.32;100.00;99975.15;106912;1285;58309;-78
2023/04/21 03:04:24;;;;;;;35.90;9.90;;;;;;;10.29;100.00;99974.89;106928;1285;58919;-78
2023/04/21 03:06:51;;;;;;;37.70;9.20;;;;;;;10.31;100.00;99974.67;106932;1283;59895;-77
2023/04/21 03:09:16;;;;;;;32.70;8.20;;;;;;;10.32;100.00;99976.50;106896;1288;74066;-77
2023/04/21 03:11:41;;;;;;;27.90;7.90;;;;;;;10.32;100.00;99976.45;106923;1284;58370;-77
2023/04/21 03:14:07;;;;;;;35.80;7.80;;;;;;;10.36;100.00;99975.41;106680;1285;59380;-77
2023/04/21 03:16:33;;;;;;;39.20;8.30;;;;;;;10.44;100.00;99975.23;106923;1285;58311;-78
2023/04/21 03:18:58;;;;;;;34.70;8.90;;;;;;;10.45;100.00;99980.45;106934;1285;58293;-77
2023/04/21 03:21:24;;;;;;;43.10;8.40;;;;;;;10.44;100.00;99980.84;107046;1285;59231;-77
2023/04/21 03:23:49;;;;;;;46.80;9.20;;;;;;;10.45;100.00;99981.16;106808;1286;58425;-78
2023/04/21 03:26:15;;;;;;;34.20;8.10;;;;;;;10.53;100.00;99976.88;106911;1284;58339;-78
2023/04/21 03:28:40;;;;;;;45.50;7.50;;;;;;;10.60;100.00;99971.73;106718;1288;58348;-77
2023/04/21 03:31:06;;;;;;;28.50;7.40;;;;;;;10.58;100.00;99972.00;106997;1285;58224;-78
2023/04/21 03:33:31;;;;;;;38.40;7.90;;;;;;;10.57;100.00;99972.45;106895;1286;73702;-77
2023/04/21 03:36:00;;;;;;;36.80;7.50;;;;;;;10.60;100.00;99974.05;106900;1285;58824;-77
2023/04/21 03:38:28;;;;;;;32.20;8.60;;;;;;;10.55;100.00;99973.36;106520;1288;59863;-77
2023/04/21 03:40:53;;;;;;;33.20;8.50;;;;;;;10.52;100.00;99979.56;106559;1287;73703;-77
2023/04/21 03:43:19;;;;;;;33.30;8.10;;;;;;;10.54;100.00;99971.80;106546;1287;58534;-78
2023/04/21 03:45:44;;;;;;;33.70;7.90;;;;;;;10.59;100.00;99974.00;106351;1288;58624;-77
2023/04/21 03:48:10;;;;;;;31.30;7.20;;;;;;;10.60;100.00;99977.28;106556;1286;58744;-78
2023/04/21 03:50:37;;;;;;;33.80;7.00;;;;;;;10.63;100.00;99976.95;106596;1286;58835;-78
2023/04/21 03:53:02;;;;;;;34.40;6.60;;;;;;;10.59;100.00;99972.16;106570;1286;74385;-77
2023/04/21 03:55:28;;;;;;;32.70;6.90;;;;;;;10.64;100.00;99972.42;106254;1286;58401;-77
2023/04/21 03:57:53;;;;;;;26.30;6.80;;;;;;;10.69;100.00;99971.10;106535;1287;58358;-77
2023/04/21 04:00:20;;;;;;;31.80;7.30;;;;;;;10.75;100.00;99969.46;106575;1287;58194;-78
2023/04/21 04:02:45;;;;;;;26.00;6.80;;;;;;;10.81;100.00;99966.14;106586;1286;58703;-77
2023/04/21 04:05:11;;;;;;;30.10;7.80;;;;;;;10.78;100.00;99966.11;106575;1288;58607;-77
2023/04/21 04:07:36;;;;;;;25.60;7.10;;;;;;;10.82;100.00;99968.67;106576;1286;58235;-78
2023/04/21 04:10:03;;;;;;;22.30;6.70;;;;;;;10.94;100.00;99968.19;106823;1284;59018;-79
2023/04/21 04:12:28;;;;;;;22.80;6.60;;;;;;;10.98;100.00;99969.36;106918;1284;58325;-77
2023/04/21 04:14:54;;;;;;;35.40;7.10;;;;;;;11.00;100.00;99969.34;106959;1284;58302;-77
2023/04/21 04:17:19;;;;;;;30.70;7.20;;;;;;;11.04;100.00;99966.73;106950;1284;58248;-77
2023/04/21 04:19:45;;;;;;;23.90;7.70;;;;;;;11.11;100.00;99967.08;106992;1285;58273;-77
2023/04/21 04:22:11;;;;;;;28.80;6.90;;;;;;;11.10;100.00;99967.45;106987;1284;58350;-77
2023/04/21 04:24:36;;;;;;;29.90;7.10;;;;;;;11.11;100.00;99966.70;106919;1284;58206;-77
2023/04/21 04:27:02;;;;;;;32.20;6.20;;;;;;;11.08;100.00;99965.26;106955;1284;58526;-77
2023/04/21 04:29:28;;;;;;;26.10;6.60;;;;;;;11.10;100.00;99963.79;106889;1283;58273;-77
2023/04/21 04:31:54;;;;;;;25.40;5.30;;;;;;;11.10;100.00;99965.41;106964;1285;58251;-77
2023/04/21 04:34:19;;;;;;;24.80;5.10;;;;;;;11.13;100.00;99966.62;106969;1285;58546;-77
2023/04/21 04:36:46;;;;;;;30.50;5.40;;;;;;;11.12;100.00;99969.00;106932;1284;72301;-77
2023/04/21 04:39:12;;;;;;;23.40;4.90;;;;;;;11.14;100.00;99971.96;106694;1286;61122;-77
2023/04/21 04:41:38;;;;;;;28.60;6.10;;;;;;;11.15;100.00;99971.96;106942;1284;58317;-77
2023/04/21 04:44:04;;;;;;;23.80;5.10;;;;;;;11.14;100.00;99973.20;106957;1285;58221;-77
2023/04/21 04:46:31;;;;;;;26.40;4.50;;;;;;;11.14;100.00;99975.25;107045;1285;58317;-77
2023/04/21 04:48:56;;;;;;;24.90;4.50;;;;;;;11.13;100.00;99974.55;106814;1285;58788;-76
2023/04/21 04:51:24;;;;;;;20.20;5.50;;;;;;;11.09;100.00;99971.40;106995;1283;58412;-76
2023/04/21 04:53:50;;;;;;;20.00;5.00;;;;;;;11.08;100.00;99968.60;106989;1284;58182;-77
2023/04/21 04:56:15;;;;;;;18.50;4.60;;;;;;;11.10;100.00;99971.45;106925;1283;58247;-76
2023/04/21 04:58:41;;;;;;;35.20;5.70;;;;;;;11.12;100.00;99968.42;106935;1285;58372;-77
2023/04/21 05:01:14;;;;;;;31.00;6.60;;;;;;;11.14;100.00;99966.95;106948;1284;59024;-76
2023/04/21 05:03:40;;;;;;;33.30;7.70;;;;;;;11.18;100.00;99966.81;106921;1284;60904;-76
2023/04/21 05:06:06;;;;;;;34.70;8.80;;;;;;;11.22;100.00;99963.29;106907;1285;58602;-76
2023/04/21 05:08:31;;;;;;;32.50;7.20;;;;;;;11.30;100.00;99963.02;106884;1284;58396;-76
2023/04/21 05:10:57;;;;;;;27.60;5.70;;;;;;;11.36;100.00;99963.63;106601;1285;58282;-76
2023/04/21 05:13:23;;;;;;;25.10;6.10;;;;;;;11.40;100.00;99959.23;106970;1284;58298;-76
2023/04/21 05:15:48;;;;;;;25.90;5.10;;;;;;;11.48;100.00;99959.38;106996;1284;58268;-76
2023/04/21 05:18:14;;;;;;;21.90;5.70;;;;;;;11.49;100.00;99955.17;106926;1283;73459;-77
2023/04/21 05:20:41;;;;;;;30.10;5.10;;;;;;;11.55;100.00;99957.44;106929;1284;58348;-76
2023/04/21 05:23:06;;;;;;;29.10;5.20;;;;;;;11.65;100.00;99952.61;106925;1283;58328;-76
2023/04/21 05:25:32;;;;;;;30.00;5.20;;;;;;;11.69;100.00;99951.56;106949;1283;59100;-76
2023/04/21 05:27:57;;;;;;;30.60;5.10;;;;;;;11.78;100.00;99947.33;106593;1285;58338;-76
2023/04/21 05:30:23;;;;;;;26.70;4.80;;;;;;;11.88;100.00;99949.37;106977;1284;58752;-76
2023/04/21 05:32:48;;;;;;;27.90;5.30;;;;;;;11.99;100.00;99947.75;106942;1284;60531;-76
2023/04/21 05:35:14;;;;;;;27.20;5.90;;;;;;;12.07;100.00;99950.65;106913;1283;58324;-76
2023/04/21 05:37:39;;;;;;;25.10;4.80;;;;;;;12.17;100.00;99945.25;106743;1286;58347;-76
2023/04/21 05:40:05;;;;;;;20.60;5.10;;;;;;;12.23;100.00;99945.08;106947;1284;58321;-76
2023/04/21 05:42:31;;;;;;;23.20;5.20;;;;;;;12.27;100.00;99943.85;106910;1284;58354;-76
2023/04/21 05:44:57;;;;;;;29.40;4.90;;;;;;;12.35;100.00;99947.22;106780;1284;58424;-76
2023/04/21 05:47:22;;;;;;;24.40;4.70;;;;;;;12.34;100.00;99946.63;106929;1284;58330;-76
2023/04/21 05:49:52;;;;;;;15.70;4.30;;;;;;;12.32;100.00;99948.23;106916;1285;58329;-77
2023/04/21 05:52:20;;;;;;;26.80;5.90;;;;;;;12.28;100.00;99946.91;106907;1284;73578;-77
2023/04/21 05:54:45;;;;;;;22.80;4.40;;;;;;;12.23;100.00;99949.56;106902;1285;62582;-76
2023/04/21 05:57:11;;;;;;;30.30;4.70;;;;;;;12.15;100.00;99945.55;106944;1284;58622;-77
2023/04/21 05:59:36;;;;;;;21.40;4.50;;;;;;;12.14;100.00;99947.76;106746;1283;58772;-76
2023/04/21 06:02:02;;;;;;;25.70;5.10;;;;;;;12.06;100.00;99947.46;106915;1283;58300;-76
2023/04/21 06:04:28;;;;;;;22.60;5.30;;;;;;;12.04;100.00;99946.80;106932;1284;58216;-77
2023/04/21 06:06:54;;;;;;;30.70;5.10;;;;;;;12.11;100.00;99946.13;106722;1285;58776;-76
2023/04/21 06:09:20;;;;;;;26.80;4.90;;;;;;;12.15;100.00;99948.52;106954;1283;73466;-76
2023/04/21 06:11:45;;;;;;;20.90;5.00;;;;;;;12.20;100.00;99947.48;107030;1283;58261;-77
2023/04/21 06:14:11;;;;;;;29.80;5.10;;;;;;;12.17;100.00;99947.95;106908;1284;59325;-77
2023/04/21 06:16:36;;;;;;;22.80;5.50;;;;;;;12.13;100.00;99953.40;106683;1283;58397;-77
2023/04/21 06:19:02;;;;;;;23.50;5.70;;;;;;;12.22;100.00;99953.14;106949;1283;58398;-76
2023/04/21 06:21:27;;;;;;;21.20;5.00;;;;;;;12.17;100.00;99953.77;106596;1283;74394;-77
2023/04/21 06:23:53;;;;;;;22.50;5.10;;;;;;;12.15;100.00;99948.09;106764;1283;58365;-77
2023/04/21 06:26:19;;;;;;;19.80;5.00;;;;;;;12.07;100.00;99954.33;107065;1283;58224;-76
2023/04/21 06:28:45;;;;;;;25.20;5.40;;;;;;;12.07;100.00;99948.65;107049;1283;58370;-77
2023/04/21 06:31:14;;;;;;;33.30;5.20;;;;;;;12.07;100.00;99950.98;107039;1283;58295;-77
2023/04/21 06:33:40;;;;;;;31.70;5.50;;;;;;;12.16;100.00;99950.73;106950;1284;58777;-77
2023/04/21 06:36:06;;;;;;;30.20;6.40;;;;;;;12.35;100.00;99948.69;106914;1283;58372;-77
2023/04/21 06:38:31;;;;;;;26.60;5.00;;;;;;;12.44;100.00;99951.01;106940;1284;58200;-76
2023/04/21 06:40:57;;;;;;;27.10;5.50;;;;;;;12.51;100.00;99946.02;106936;1284;58215;-77
2023/04/21 06:43:22;;;;;;;25.60;5.60;;;;;;;12.68;100.00;99939.75;106901;1284;58267;-77
2023/04/21 06:45:48;;;;;;;20.50;4.70;;;;;;;12.85;100.00;99943.91;107001;1284;58318;-77
2023/04/21 06:48:14;;;;;;;20.60;5.30;;;;;;;12.94;100.00;99945.13;106924;1284;58523;-77
2023/04/21 06:50:39;;;;;;;20.90;4.50;;;;;;;12.99;100.00;99944.05;106940;1284;58285;-76
2023/04/21 06:53:05;;;;;;;25.30;5.40;;;;;;;13.07;100.00;99948.31;106933;1283;58264;-77
2023/04/21 06:55:30;;;;;;;24.70;5.20;;;;;;;13.10;100.00;99945.02;106983;1283;58382;-77
2023/04/21 06:57:56;;;;;;;34.00;5.40;;;;;;;13.01;100.00;99946.06;106986;1283;58223;-77
2023/04/21 07:00:22;;;;;;;23.10;4.50;;;;;;;12.96;100.00;99946.25;106898;1283;59900;-76
2023/04/21 07:02:47;;;;;;;24.00;5.10;;;;;;;12.89;100.00;99948.99;106957;1284;58297;-76
2023/04/21 07:05:13;;;;;;;19.70;4.80;;;;;;;12.76;100.00;99950.95;106988;1283;58347;-77
2023/04/21 07:07:38;;;;;;;27.00;5.10;;;;;;;12.65;100.00;99948.70;106933;1283;58985;-76
2023/04/21 07:10:05;;;;;;;22.70;4.60;;;;;;;12.55;100.00;99951.37;106634;1283;58266;-77
2023/04/21 07:12:30;;;;;;;18.30;4.60;;;;;;;12.51;100.00;99958.60;106678;1285;58261;-76
2023/04/21 07:14:56;;;;;;;24.30;5.30;;;;;;;12.45;100.00;99960.78;106949;1284;74619;-76
2023/04/21 07:17:21;;;;;;;24.90;5.40;;;;;;;12.40;100.00;99960.46;106981;1285;58303;-76
2023/04/21 07:19:47;;;;;;;30.30;5.60;;;;;;;12.42;100.00;99960.60;106974;1284;58370;-76
2023/04/21 07:22:12;;;;;;;29.20;5.30;;;;;;;12.48;100.00;99957.50;106648;1285;58251;-76
2023/04/21 07:24:38;;;;;;;26.20;5.70;;;;;;;12.61;100.00;99954.91;107039;1283;58316;-76
2023/04/21 07:27:03;;;;;;;21.80;5.70;;;;;;;12.61;100.00;99953.40;106939;1284;73434;-76
2023/04/21 07:29:29;;;;;;;31.80;6.10;;;;;;;12.59;100.00;99955.15;106970;1284;58498;-76
2023/04/21 07:31:55;;;;;;;38.50;6.30;;;;;;;12.63;100.00;99952.24;106919;1283;58420;-76
2023/04/21 07:34:21;;;;;;;26.10;5.00;;;;;;;12.63;100.00;99955.55;106942;1283;58215;-76
2023/04/21 07:36:46;;;;;;;16.70;4.70;;;;;;;12.60;100.00;99949.80;106957;1284;58331;-76
2023/04/21 07:39:12;;;;;;;21.30;5.00;;;;;;;12.66;100.00;99948.69;106981;1284;58232;-76
2023/04/21 07:41:38;;;;;;;29.60;5.10;;;;;;;12.70;100.00;99949.41;107000;1284;60459;-76
2023/04/21 07:44:03;;;;;;;22.00;5.10;;;;;;;12.73;100.00;99948.60;106626;1284;58203;-76
2023/04/21 07:46:30;;;;;;;22.20;5.00;;;;;;;12.71;100.00;99949.92;106738;1284;58657;-75
2023/04/21 07:49:00;;;;;;;34.30;6.20;;;;;;;12.65;100.00;99950.38;106725;1284;58242;-76
2023/04/21 07:51:28;;;;;;;23.60;5.30;;;;;;;12.57;100.00;99952.80;106691;1285;62614;-76
2023/04/21 07:53:54;;;;;;;28.40;5.50;;;;;;;12.62;100.00;99952.90;106633;1284;59886;-76
2023/04/21 07:56:20;;;;;;;24.70;5.60;;;;;;;12.68;100.00;99949.48;106976;1284;58657;-76
2023/04/21 07:58:46;;;;;;;20.00;5.40;;;;;;;12.78;100.00;99951.98;106931;1285;58332;-76
2023/04/21 08:01:12;;;;;;;27.40;6.10;;;;;;;12.81;100.00;99949.70;106894;1284;58282;-76
2023/04/21 08:03:37;;;;;;;26.90;5.40;;;;;;;12.79;100.00;99951.95;106923;1284;58640;-76
2023/04/21 08:06:03;;;;;;;28.40;5.70;;;;;;;12.87;100.00;99949.71;107004;1283;58274;-76
2023/04/21 08:08:29;;;;;;;21.90;5.00;;;;;;;12.91;100.00;99950.52;106951;1284;74125;-76
2023/04/21 08:10:54;;;;;;;22.20;5.30;;;;;;;12.91;100.00;99949.55;106991;1283;58306;-76
2023/04/21 08:13:23;;;;;;;33.00;6.60;;;;;;;12.93;100.00;99950.33;106818;1283;58616;-76
2023/04/21 08:15:50;;;;;;;23.00;6.40;;;;;;;12.94;100.00;99952.80;106954;1283;60312;-76
2023/04/21 08:18:17;;;;;;;22.80;5.50;;;;;;;12.98;100.00;99951.69;106963;1284;72728;-77
2023/04/21 08:20:44;;;;;;;20.00;5.20;;;;;;;12.96;100.00;99954.14;106801;1284;72233;-76
2023/04/21 08:23:09;;;;;;;31.00;6.10;;;;;;;12.99;100.00;99955.14;106995;1283;58250;-76
2023/04/21 08:25:35;;;;;;;25.10;5.60;;;;;;;13.01;100.00;99951.58;106976;1284;58217;-76
2023/04/21 08:28:00;;;;;;;23.30;5.60;;;;;;;13.01;100.00;99954.61;106618;1284;58430;-76
2023/04/21 08:30:27;;;;;;;27.10;5.50;;;;;;;13.01;100.00;99956.40;106963;1284;58442;-77
2023/04/21 08:32:52;;;;;;;19.20;5.70;;;;;;;13.01;100.00;99949.80;106956;1284;58313;-76
2023/04/21 08:35:18;;;;;;;17.60;5.10;;;;;;;12.86;100.00;99947.04;106985;1283;58274;-76
2023/04/21 08:37:44;;;;;;;26.00;5.50;;;;;;;12.84;100.00;99942.25;106979;1283;61222;-76
2023/04/21 08:40:10;;;;;;;22.80;5.70;;;;;;;12.89;100.00;99940.55;106975;1284;58591;-76
2023/04/21 08:42:38;;;;;;;21.00;4.90;;;;;;;12.82;100.00;99940.36;106976;1283;58313;-76
2023/04/21 08:45:05;;;;;;;16.30;4.70;;;;;;;12.94;100.00;99939.67;106749;1284;58400;-76
2023/04/21 08:47:31;;;;;;;14.40;5.20;;;;;;;13.06;100.00;99940.10;106915;1283;62950;-76
2023/04/21 08:49:58;;;;;;;21.30;4.40;;;;;;;13.04;100.00;99939.48;106553;1283;60265;-76
2023/04/21 08:52:23;;;;;;;22.30;4.80;;;;;;;13.01;100.00;99939.48;106929;1283;58285;-76
2023/04/21 08:54:51;;;;;;;17.30;4.70;;;;;;;13.11;100.00;99938.41;106623;1284;58810;-76
2023/04/21 08:57:18;;;;;;;24.40;4.60;;;;;;;13.21;100.00;99935.34;106930;1283;73557;-76
2023/04/21 08:59:44;;;;;;;15.40;3.60;;;;;;;13.31;100.00;99935.93;106809;1284;58300;-76
2023/04/21 09:02:15;;;;;;;17.30;3.60;;;;;;;13.36;100.00;99939.91;106989;1283;60611;-76
2023/04/21 09:04:43;;;;;;;17.10;4.10;;;;;;;13.37;100.00;99941.14;106940;1283;73904;-76
2023/04/21 09:07:09;;;;;;;17.50;3.70;;;;;;;13.31;100.00;99943.10;106964;1284;73896;-76
2023/04/21 09:09:54;;;;;;;12.20;3.30;;;;;;;13.27;100.00;99945.84;106960;1283;58253;-76
2023/04/21 09:12:20;;;;;;;18.10;3.80;;;;;;;13.26;100.00;99947.64;106933;1284;63051;-76
2023/04/21 09:14:46;;;;;;;14.60;3.80;;;;;;;13.19;100.00;99943.98;106998;1283;58196;-76
2023/04/21 09:17:11;;;;;;;12.80;3.40;;;;;;;13.13;100.00;99949.15;106628;1284;58513;-76
2023/04/21 09:19:37;;;;;;;19.30;4.50;;;;;;;13.13;100.00;99948.45;106744;1283;58368;-78
2023/04/21 09:22:03;;;;;;;17.60;3.90;;;;;;;13.25;100.00;99945.48;106961;1284;58233;-77
2023/04/21 09:24:29;;;;;;;13.80;4.00;;;;;;;13.32;100.00;99940.40;106961;1283;58268;-77
2023/04/21 09:26:55;;;;;;;18.70;4.20;;;;;;;13.31;100.00;99939.45;106957;1284;74638;-77
2023/04/21 09:29:24;;;;;;;20.20;3.40;;;;;;;13.33;100.00;99939.69;106971;1284;58235;-77
2023/04/21 09:31:51;;;;;;;12.80;3.50;;;;;;;13.33;100.00;99937.52;106965;1284;73526;-77
2023/04/21 09:34:19;;;;;;;19.70;3.70;;;;;;;13.34;100.00;99938.09;107039;1283;62908;-77
2023/04/21 09:36:46;;;;;;;16.30;3.70;;;;;;;13.30;100.00;99934.75;106952;1283;61397;-78
2023/04/21 09:39:12;;;;;;;20.20;3.80;;;;;;;13.30;100.00;99938.21;106911;1284;74695;-77
2023/04/21 09:41:37;;;;;;;29.80;3.90;;;;;;;13.37;100.00;99934.21;107002;1283;58204;-76
2023/04/21 09:44:03;;;;;;;14.50;3.40;;;;;;;13.43;100.00;99936.28;106923;1284;58491;-78
2023/04/21 09:46:33;;;;;;;16.20;3.40;;;;;;;13.47;100.00;99932.44;106908;1283;58264;-73
2023/04/21 09:49:03;;;;;;;12.30;3.10;;;;;;;13.54;100.00;99932.95;106944;1283;61343;-74
2023/04/21 09:51:30;;;;;;;13.70;3.50;;;;;;;13.62;100.00;99936.42;106950;1284;74026;-74
2023/04/21 09:53:59;;;;;;;20.10;4.20;;;;;;;13.65;100.00;99937.44;106934;1283;73162;-74
2023/04/21 09:56:28;;;;;;;22.50;3.30;;;;;;;13.73;100.00;99936.77;106945;1283;73490;-74
2023/04/21 09:59:00;;;;;;;12.50;2.60;;;;;;;13.76;100.00;99937.38;106931;1284;61858;-74
2023/04/21 10:01:28;;;;;;;9.00;2.70;;;;;;;13.67;100.00;99941.03;106985;1283;60153;-76
2023/04/21 10:03:54;;;;;;;15.90;3.20;;;;;;;13.67;100.00;99942.12;106935;1284;74500;-77
2023/04/21 10:06:20;;;;;;;12.60;3.20;;;;;;;13.46;100.00;99945.77;106941;1283;58250;-77
2023/04/21 10:08:49;;;;;;;16.40;2.60;;;;;;;13.40;100.00;99943.47;106928;1283;58274;-77
2023/04/21 10:11:14;;;;;;;20.00;2.70;;;;;;;13.46;100.00;99946.80;106941;1284;63086;-77
2023/04/21 10:13:41;;;;;;;14.50;2.90;;;;;;;13.50;100.00;99945.00;107025;1283;58321;-76
2023/04/21 10:16:10;;;;;;;18.80;2.80;;;;;;;13.56;100.00;99944.58;106965;1284;58249;-76
2023/04/21 10:18:45;;;;;;;11.20;2.10;;;;;;;13.58;100.00;99947.31;106984;1284;71380;-76
2023/04/21 10:21:23;;;;;;;6.80;2.50;;;;;;;13.51;100.00;99948.89;106958;1284;73568;-76
2023/04/21 10:23:49;;;;;;;11.30;2.30;;;;;;;13.49;100.00;99947.48;106931;1284;62150;-76
2023/04/21 10:26:33;;;;;;;12.60;3.60;;;;;;;13.56;100.00;99949.83;106995;1283;58408;-76
2023/04/21 10:29:00;;;;;;;13.80;2.60;;;;;;;13.57;100.00;99950.23;106947;1284;73767;-76
2023/04/21 10:31:31;;;;;;;9.80;2.20;;;;;;;13.58;100.00;99951.69;106955;1283;74693;-77
2023/04/21 10:34:11;;;;;;;10.50;2.10;;;;;;;13.63;100.00;99954.14;106983;1284;73502;-77
2023/04/21 10:36:55;;;;;;;14.00;3.90;;;;;;;13.57;100.00;99952.35;106929;1284;61550;-76
2023/04/21 10:39:25;;;;;;;6.50;1.40;;;;;;;13.43;100.00;99955.77;107002;1284;60222;-76
2023/04/21 10:41:50;;;;;;;5.30;1.60;;;;;;;13.31;100.00;99963.70;106943;1283;73783;-76
2023/04/21 10:44:16;;;;;;;9.80;1.50;;;;;;;13.13;100.00;99967.02;106981;1283;58346;-76
2023/04/21 10:47:06;;;;;;;4.40;1.40;;;;;;;13.02;100.00;99969.42;106960;1284;58248;-76
2023/04/21 10:49:37;;;;;;;6.00;1.60;;;;;;;12.99;100.00;99972.13;106038;1292;60538;-76
2023/04/21 10:52:08;;;;;;;4.90;1.50;;;;;;;12.92;100.00;99973.12;106094;1292;60176;-76
2023/04/21 10:54:46;;;;;;;11.30;2.60;;;;;;;12.89;100.00;99973.48;106067;1293;74489;-76
2023/04/21 10:57:14;;;;;;;5.10;1.50;;;;;;;13.00;100.00;99976.49;106044;1293;73592;-76
2023/04/21 10:59:39;;;;;;;7.80;1.60;;;;;;;13.05;100.00;99977.34;105835;1292;73553;-76
2023/04/21 11:02:07;;;;;;;5.90;1.40;;;;;;;13.03;100.00;99978.49;105946;1292;58275;-77
2023/04/21 11:04:33;;;;;;;4.50;2.00;;;;;;;12.99;100.00;99982.29;106045;1292;60115;-76
2023/04/21 11:07:08;;;;;;;4.60;1.60;;;;;;;12.85;100.00;99980.62;105978;1292;58331;-77